Time;durP1;ratioP1;P1;durP2;ratioP2;P2;SDS_P1;SDS_P2;PMS_P1;PMS_P2;Temp;Humidity;BMP_temperature;BMP_pressure;BME280_temperature;BME280_humidity;BME280_pressure;Samples;Min_cycle;Max_cycle;Signal;HPM_P1;HPM_P2
2021/11/14 00:01:39;;;;;;;2.80;2.55;;;;;;;;;;4850200;29;32434;-66
2021/11/14 00:04:06;;;;;;;2.92;2.50;;;;;;;;;;4850444;29;32328;-66
2021/11/14 00:06:34;;;;;;;3.13;2.88;;;;;;;;;;4849924;29;32352;-68
2021/11/14 00:09:01;;;;;;;2.55;2.35;;;;;;;;;;4850178;29;32329;-66
2021/11/14 00:11:28;;;;;;;2.65;2.38;;;;;;;;;;4850255;29;32349;-66
2021/11/14 00:13:57;;;;;;;3.40;2.63;;;;;;;;;;4849769;29;33889;-67
2021/11/14 00:16:25;;;;;;;3.17;2.67;;;;;;;;;;4849617;29;32600;-65
2021/11/14 00:18:52;;;;;;;3.85;2.85;;;;;;;;;;4850315;29;32234;-66
2021/11/14 00:21:21;;;;;;;2.58;1.75;;;;;;;;;;4850096;29;32204;-65
2021/11/14 00:23:49;;;;;;;3.35;3.05;;;;;;;;;;4849461;29;32364;-65
2021/11/14 00:26:16;;;;;;;2.13;1.58;;;;;;;;;;4849802;29;32259;-66
2021/11/14 00:28:43;;;;;;;;;;;;;;;;;;4857316;29;32382;-65
2021/11/14 00:31:10;;;;;;;2.72;2.53;;;;;;;;;;4868397;29;32264;-65
2021/11/14 00:33:38;;;;;;;3.38;3.08;;;;;;;;;;4868443;29;32443;-67
2021/11/14 00:36:05;;;;;;;3.35;3.00;;;;;;;;;;4868598;29;35194;-68
2021/11/14 00:38:31;;;;;;;3.90;2.53;;;;;;;;;;4868405;29;32451;-67
2021/11/14 00:40:59;;;;;;;2.42;1.90;;;;;;;;;;4868578;29;32262;-68
2021/11/14 00:43:26;;;;;;;2.40;1.63;;;;;;;;;;4868515;29;32452;-65
2021/11/14 00:45:53;;;;;;;3.95;3.15;;;;;;;;;;4868396;29;32326;-65
2021/11/14 00:48:19;;;;;;;3.03;2.72;;;;;;;;;;4868471;29;32299;-65
2021/11/14 00:50:47;;;;;;;3.53;3.22;;;;;;;;;;4868634;29;32725;-64
2021/11/14 00:53:17;;;;;;;3.20;2.72;;;;;;;;;;4868121;29;32398;-66
2021/11/14 00:55:45;;;;;;;3.10;2.80;;;;;;;;;;4866975;29;32481;-65
2021/11/14 00:58:14;;;;;;;3.20;2.90;;;;;;;;;;4864398;29;34179;-65
2021/11/14 01:00:41;;;;;;;3.42;3.08;;;;;;;;;;4867211;29;32360;-66
2021/11/14 01:03:09;;;;;;;4.22;2.83;;;;;;;;;;4867975;29;32316;-68
2021/11/14 01:05:40;;;;;;;5.47;2.85;;;;;;;;;;4866766;29;32400;-65
2021/11/14 01:08:09;;;;;;;4.25;3.15;;;;;;;;;;4868463;29;32391;-64
2021/11/14 01:10:39;;;;;;;2.78;1.90;;;;;;;;;;4866311;29;32471;-65
2021/11/14 01:13:06;;;;;;;4.30;2.30;;;;;;;;;;4868299;29;32518;-66
2021/11/14 01:15:35;;;;;;;3.42;2.78;;;;;;;;;;4867860;29;32385;-67
2021/11/14 01:18:02;;;;;;;2.83;1.92;;;;;;;;;;4865459;29;32484;-66
2021/11/14 01:20:31;;;;;;;3.25;2.88;;;;;;;;;;4864978;29;34108;-65
2021/11/14 01:23:00;;;;;;;3.67;2.70;;;;;;;;;;4864914;29;32515;-65
2021/11/14 01:25:27;;;;;;;3.47;2.92;;;;;;;;;;4853279;29;32553;-65
2021/11/14 01:27:53;;;;;;;2.33;2.00;;;;;;;;;;4853458;29;32233;-67
2021/11/14 01:30:24;;;;;;;3.90;2.72;;;;;;;;;;4865032;29;33925;-66
2021/11/14 01:32:53;;;;;;;2.55;1.85;;;;;;;;;;4866692;29;32349;-66
2021/11/14 01:35:20;;;;;;;3.63;2.67;;;;;;;;;;4864329;29;32229;-67
2021/11/14 01:37:49;;;;;;;3.22;2.70;;;;;;;;;;4849663;29;32610;-66
2021/11/14 01:40:20;;;;;;;2.35;1.83;;;;;;;;;;4849405;29;32326;-69
2021/11/14 01:42:47;;;;;;;4.35;3.28;;;;;;;;;;4849517;29;34745;-68
2021/11/14 01:45:15;;;;;;;3.08;2.60;;;;;;;;;;4848943;29;32366;-65
2021/11/14 01:47:42;;;;;;;4.13;2.28;;;;;;;;;;4848987;29;32509;-65
2021/11/14 01:50:13;;;;;;;2.42;2.15;;;;;;;;;;4848878;29;32465;-66
2021/11/14 01:52:42;;;;;;;2.75;1.58;;;;;;;;;;4848657;29;34690;-69
2021/11/14 01:55:10;;;;;;;3.78;3.47;;;;;;;;;;4849176;29;32338;-65
2021/11/14 01:57:37;;;;;;;2.38;2.17;;;;;;;;;;4848362;29;32435;-65
2021/11/14 02:00:08;;;;;;;2.25;2.05;;;;;;;;;;4848672;29;32380;-66
2021/11/14 02:02:34;;;;;;;3.17;2.75;;;;;;;;;;4849342;29;32251;-67
2021/11/14 02:05:01;;;;;;;1.92;1.50;;;;;;;;;;4848529;29;34700;-68
2021/11/14 02:07:30;;;;;;;2.78;2.58;;;;;;;;;;4847975;29;32304;-67
2021/11/14 02:09:56;;;;;;;2.65;2.45;;;;;;;;;;4848763;29;32212;-66
2021/11/14 02:12:23;;;;;;;2.92;2.55;;;;;;;;;;4853904;29;32454;-66
2021/11/14 02:14:50;;;;;;;3.60;2.42;;;;;;;;;;4848468;29;35574;-68
2021/11/14 02:17:16;;;;;;;3.60;2.47;;;;;;;;;;4848541;29;32508;-68
2021/11/14 02:19:50;;;;;;;2.40;2.20;;;;;;;;;;4848590;29;32339;-67
2021/11/14 02:22:17;;;;;;;2.83;2.17;;;;;;;;;;4847706;29;32354;-66
2021/11/14 02:24:43;;;;;;;;;;;;;;;;;;4848905;29;32505;-66
2021/11/14 02:27:11;;;;;;;3.17;2.25;;;;;;;;;;4847867;29;35599;-68
2021/11/14 02:29:37;;;;;;;2.40;2.20;;;;;;;;;;4848640;29;32707;-65
2021/11/14 02:32:05;;;;;;;2.30;2.10;;;;;;;;;;4848491;29;32417;-66
2021/11/14 02:34:32;;;;;;;3.53;2.15;;;;;;;;;;4848332;29;32276;-66
2021/11/14 02:37:00;;;;;;;2.33;2.13;;;;;;;;;;4848296;29;35240;-66
2021/11/14 02:39:27;;;;;;;1.70;1.30;;;;;;;;;;4848364;29;32529;-68
2021/11/14 02:41:53;;;;;;;2.10;1.33;;;;;;;;;;4848096;29;32235;-66
2021/11/14 02:44:20;;;;;;;3.08;2.47;;;;;;;;;;4848175;29;32304;-68
2021/11/14 02:46:46;;;;;;;2.50;2.30;;;;;;;;;;4847788;29;32530;-66
2021/11/14 02:49:13;;;;;;;1.50;1.35;;;;;;;;;;4848107;29;34835;-69
2021/11/14 02:51:40;;;;;;;2.47;2.13;;;;;;;;;;4848300;29;32427;-68
2021/11/14 02:54:08;;;;;;;3.28;2.97;;;;;;;;;;4848281;29;32374;-68
2021/11/14 02:56:35;;;;;;;2.92;2.67;;;;;;;;;;4847996;29;32412;-65
2021/11/14 02:59:02;;;;;;;2.00;1.40;;;;;;;;;;4848038;29;35222;-67
2021/11/14 03:01:34;;;;;;;2.40;2.10;;;;;;;;;;4847810;29;32484;-66
2021/11/14 03:04:01;;;;;;;2.88;2.00;;;;;;;;;;4848245;29;32304;-65
2021/11/14 03:06:31;;;;;;;1.85;1.23;;;;;;;;;;4847397;29;32368;-65
2021/11/14 03:08:57;;;;;;;2.55;1.30;;;;;;;;;;4848166;29;32178;-65
2021/11/14 03:11:26;;;;;;;3.00;2.50;;;;;;;;;;4847621;29;34519;-65
2021/11/14 03:13:52;;;;;;;2.47;1.58;;;;;;;;;;4848077;29;32491;-66
2021/11/14 03:16:22;;;;;;;2.78;2.30;;;;;;;;;;4847561;29;32338;-65
2021/11/14 03:18:48;;;;;;;2.10;1.25;;;;;;;;;;4849244;29;32276;-65
2021/11/14 03:21:15;;;;;;;2.35;2.13;;;;;;;;;;4850679;29;33945;-65
2021/11/14 03:23:42;;;;;;;2.20;2.00;;;;;;;;;;4850487;29;32281;-65
2021/11/14 03:26:08;;;;;;;3.35;2.17;;;;;;;;;;4850517;29;32477;-67
2021/11/14 03:28:37;;;;;;;1.90;1.30;;;;;;;;;;4850433;29;32294;-66
2021/11/14 03:31:04;;;;;;;2.33;1.35;;;;;;;;;;4850661;29;32377;-65
2021/11/14 03:33:31;;;;;;;2.47;1.10;;;;;;;;;;4850313;29;35533;-66
2021/11/14 03:36:03;;;;;;;2.38;2.17;;;;;;;;;;4850373;29;32462;-67
2021/11/14 03:38:33;;;;;;;2.45;2.25;;;;;;;;;;4850833;29;32331;-67
2021/11/14 03:41:01;;;;;;;1.95;1.85;;;;;;;;;;4850760;29;32343;-66
2021/11/14 03:43:28;;;;;;;2.78;2.10;;;;;;;;;;4850422;29;34072;-65
2021/11/14 03:45:56;;;;;;;2.42;1.38;;;;;;;;;;4850397;29;32374;-65
2021/11/14 03:48:24;;;;;;;2.65;2.45;;;;;;;;;;4850392;29;32380;-66
2021/11/14 03:50:50;;;;;;;;;;;;;;;;;;4850807;29;32324;-67
2021/11/14 03:53:17;;;;;;;2.28;2.08;;;;;;;;;;4850603;29;32428;-63
2021/11/14 03:55:43;;;;;;;1.65;1.10;;;;;;;;;;4850158;29;35337;-65
2021/11/14 03:58:10;;;;;;;1.85;1.23;;;;;;;;;;4849121;29;32153;-65
2021/11/14 04:00:40;;;;;;;2.00;1.65;;;;;;;;;;4851052;29;32369;-66
2021/11/14 04:03:08;;;;;;;1.70;1.20;;;;;;;;;;4869387;29;32362;-68
2021/11/14 04:05:36;;;;;;;1.95;1.85;;;;;;;;;;4868494;29;33996;-65
2021/11/14 04:08:07;;;;;;;1.80;1.70;;;;;;;;;;4868751;29;32530;-65
2021/11/14 04:10:34;;;;;;;1.50;1.17;;;;;;;;;;4868912;29;32275;-66
2021/11/14 04:13:01;;;;;;;1.92;1.83;;;;;;;;;;4868796;29;32353;-66
2021/11/14 04:15:28;;;;;;;2.10;1.90;;;;;;;;;;4868985;29;32317;-67
2021/11/14 04:17:57;;;;;;;2.22;1.98;;;;;;;;;;4868797;29;33908;-66
2021/11/14 04:20:28;;;;;;;2.20;1.98;;;;;;;;;;4865471;29;32448;-65
2021/11/14 04:22:57;;;;;;;1.95;1.77;;;;;;;;;;4849973;29;32548;-66
2021/11/14 04:25:24;;;;;;;1.85;1.15;;;;;;;;;;4850559;29;32179;-66
2021/11/14 04:27:52;;;;;;;2.42;2.20;;;;;;;;;;4859795;29;34245;-66
2021/11/14 04:30:18;;;;;;;2.92;2.63;;;;;;;;;;4860510;29;32438;-66
2021/11/14 04:32:46;;;;;;;2.03;1.92;;;;;;;;;;4849874;29;32378;-66
2021/11/14 04:35:13;;;;;;;2.42;2.22;;;;;;;;;;4850251;29;32256;-67
2021/11/14 04:37:41;;;;;;;2.47;2.28;;;;;;;;;;4860107;29;32386;-68
2021/11/14 04:40:10;;;;;;;2.22;2.00;;;;;;;;;;4868184;29;33944;-65
2021/11/14 04:42:36;;;;;;;2.65;2.00;;;;;;;;;;4868459;29;32440;-66
2021/11/14 04:45:05;;;;;;;2.53;1.80;;;;;;;;;;4861199;29;32519;-65
2021/11/14 04:47:32;;;;;;;1.95;1.85;;;;;;;;;;4859164;29;32107;-65
2021/11/14 04:49:58;;;;;;;3.38;3.08;;;;;;;;;;4859189;29;33966;-65
2021/11/14 04:52:25;;;;;;;2.45;1.40;;;;;;;;;;4857256;29;32424;-66
2021/11/14 04:54:54;;;;;;;2.65;2.08;;;;;;;;;;4858254;29;32291;-68
2021/11/14 04:57:20;;;;;;;2.83;2.50;;;;;;;;;;4856747;29;32323;-66
2021/11/14 04:59:47;;;;;;;2.70;2.50;;;;;;;;;;4858870;29;32326;-66
2021/11/14 05:02:14;;;;;;;2.63;2.25;;;;;;;;;;4864430;29;34619;-67
2021/11/14 05:04:41;;;;;;;2.42;2.22;;;;;;;;;;4857082;29;33351;-66
2021/11/14 05:07:08;;;;;;;6.03;2.35;;;;;;;;;;4858232;29;32364;-67
2021/11/14 05:09:35;;;;;;;3.05;2.65;;;;;;;;;;4856818;29;32508;-67
2021/11/14 05:12:04;;;;;;;3.22;2.17;;;;;;;;;;4856543;29;35154;-66
2021/11/14 05:14:31;;;;;;;3.50;2.78;;;;;;;;;;4856031;29;32946;-69
2021/11/14 05:16:57;;;;;;;2.70;2.35;;;;;;;;;;4856214;29;32621;-67
2021/11/14 05:19:24;;;;;;;3.00;2.55;;;;;;;;;;4857306;29;32299;-67
2021/11/14 05:21:51;;;;;;;2.58;2.00;;;;;;;;;;4855541;29;32472;-69
2021/11/14 05:24:18;;;;;;;3.28;2.10;;;;;;;;;;4856718;29;34119;-67
2021/11/14 05:26:46;;;;;;;4.07;2.67;;;;;;;;;;4857174;29;32302;-66
2021/11/14 05:29:14;;;;;;;1.77;1.33;;;;;;;;;;4850788;29;32279;-65
2021/11/14 05:31:40;;;;;;;2.33;2.13;;;;;;;;;;4853556;29;32466;-66
2021/11/14 05:34:07;;;;;;;2.50;1.30;;;;;;;;;;4852432;29;34115;-66
2021/11/14 05:36:34;;;;;;;3.10;2.08;;;;;;;;;;4856615;29;32914;-66
2021/11/14 05:39:01;;;;;;;2.42;2.17;;;;;;;;;;4856880;29;32887;-66
2021/11/14 05:41:28;;;;;;;1.92;1.40;;;;;;;;;;4856206;29;32381;-65
2021/11/14 05:43:55;;;;;;;2.33;2.08;;;;;;;;;;4859044;29;32395;-67
2021/11/14 05:46:23;;;;;;;2.47;2.28;;;;;;;;;;4866110;29;34619;-67
2021/11/14 05:48:49;;;;;;;1.95;1.40;;;;;;;;;;4867571;29;32474;-66
2021/11/14 05:51:16;;;;;;;2.33;2.13;;;;;;;;;;4867429;29;32267;-66
2021/11/14 05:53:42;;;;;;;1.88;1.55;;;;;;;;;;4865240;29;32342;-66
2021/11/14 05:56:09;;;;;;;2.28;1.45;;;;;;;;;;4855993;29;34079;-68
2021/11/14 06:03:39;;;;;;;2.10;1.20;;;;;;;;;;4865500;29;32404;-69
2021/11/14 06:06:07;;;;;;;2.38;2.17;;;;;;;;;;4855983;29;32299;-67
2021/11/14 06:08:33;;;;;;;3.53;2.25;;;;;;;;;;4865889;29;34489;-67
2021/11/14 06:11:00;;;;;;;2.25;2.05;;;;;;;;;;4866141;29;32496;-66
2021/11/14 06:13:28;;;;;;;1.52;1.23;;;;;;;;;;4865600;29;32396;-67
2021/11/14 06:15:55;;;;;;;2.40;2.20;;;;;;;;;;4858372;29;32397;-65
2021/11/14 06:18:22;;;;;;;3.13;2.05;;;;;;;;;;4857962;29;34838;-66
2021/11/14 06:20:50;;;;;;;2.13;1.40;;;;;;;;;;4861348;29;32331;-65
2021/11/14 06:23:17;;;;;;;2.38;2.17;;;;;;;;;;4855811;29;32625;-67
2021/11/14 06:25:43;;;;;;;2.03;1.30;;;;;;;;;;4857612;29;32532;-64
2021/11/14 06:28:10;;;;;;;3.08;2.15;;;;;;;;;;4860213;29;32366;-65
2021/11/14 06:30:37;;;;;;;2.33;1.50;;;;;;;;;;4851368;29;33922;-64
2021/11/14 06:33:04;;;;;;;2.85;2.50;;;;;;;;;;4857849;29;32851;-68
2021/11/14 06:35:31;;;;;;;4.45;2.40;;;;;;;;;;4863990;29;32498;-67
2021/11/14 06:37:59;;;;;;;2.40;1.42;;;;;;;;;;4859371;29;32769;-66
2021/11/14 06:40:26;;;;;;;2.05;1.30;;;;;;;;;;4864290;29;35102;-65
2021/11/14 06:42:52;;;;;;;2.58;2.38;;;;;;;;;;4857370;29;32648;-68
2021/11/14 06:45:19;;;;;;;2.33;2.13;;;;;;;;;;4861521;29;32600;-66
2021/11/14 06:47:45;;;;;;;2.95;2.05;;;;;;;;;;4860921;29;32516;-64
2021/11/14 06:50:14;;;;;;;2.05;1.20;;;;;;;;;;4860622;29;32488;-68
2021/11/14 06:52:43;;;;;;;1.58;1.20;;;;;;;;;;4862313;29;36000;-66
2021/11/14 06:55:14;;;;;;;2.83;2.53;;;;;;;;;;4861143;29;32553;-66
2021/11/14 06:57:41;;;;;;;2.85;2.35;;;;;;;;;;4860257;29;32467;-67
2021/11/14 07:00:12;;;;;;;2.50;2.30;;;;;;;;;;4863430;29;32469;-66
2021/11/14 07:02:38;;;;;;;2.67;2.47;;;;;;;;;;4861091;29;34324;-66
2021/11/14 07:05:06;;;;;;;2.65;2.38;;;;;;;;;;4861945;29;32476;-64
2021/11/14 07:07:34;;;;;;;3.92;2.38;;;;;;;;;;4851939;29;32304;-66
2021/11/14 07:10:01;;;;;;;2.50;1.90;;;;;;;;;;4863718;29;32375;-65
2021/11/14 07:12:29;;;;;;;2.38;2.17;;;;;;;;;;4858601;29;32372;-66
2021/11/14 07:14:56;;;;;;;2.78;2.28;;;;;;;;;;4861136;29;34581;-67
2021/11/14 07:17:24;;;;;;;2.30;2.10;;;;;;;;;;4857671;29;32549;-65
2021/11/14 07:19:51;;;;;;;2.40;2.20;;;;;;;;;;4860710;29;32433;-66
2021/11/14 07:22:17;;;;;;;2.22;2.00;;;;;;;;;;4858976;29;32467;-68
2021/11/14 07:24:44;;;;;;;4.30;2.15;;;;;;;;;;4859479;29;34597;-66
2021/11/14 07:27:10;;;;;;;1.90;1.13;;;;;;;;;;4856334;29;32939;-68
2021/11/14 07:29:38;;;;;;;2.22;1.45;;;;;;;;;;4859614;29;32239;-66
2021/11/14 07:32:06;;;;;;;2.42;2.03;;;;;;;;;;4854289;29;32389;-66
2021/11/14 07:34:33;;;;;;;1.65;0.98;;;;;;;;;;4856808;29;32788;-65
2021/11/14 07:37:00;;;;;;;2.22;1.30;;;;;;;;;;4687947;29;34612;-66
2021/11/14 07:39:26;;;;;;;2.55;1.23;;;;;;;;;;4860641;29;32524;-66
2021/11/14 07:41:53;;;;;;;2.65;2.42;;;;;;;;;;4857696;29;32558;-66
2021/11/14 07:44:20;;;;;;;2.38;2.17;;;;;;;;;;4861337;29;33735;-65
2021/11/14 07:46:48;;;;;;;2.63;1.23;;;;;;;;;;4860101;29;34859;-64
2021/11/14 07:49:15;;;;;;;2.30;2.10;;;;;;;;;;4788765;28;32502;-68
2021/11/14 07:53:04;;;;;;;2.10;1.55;;;;;;;;;;4123712;32;33879;-65
2021/11/14 07:55:31;;;;;;;2.47;1.73;;;;;;;;;;4678465;28;52604;-64
2021/11/14 07:57:59;;;;;;;1.70;0.90;;;;;;;;;;4882815;28;34257;-65
2021/11/14 08:00:26;;;;;;;2.72;1.27;;;;;;;;;;4884023;29;32432;-65
2021/11/14 08:02:52;;;;;;;1.38;1.00;;;;;;;;;;4875320;29;32475;-67
2021/11/14 08:05:20;;;;;;;3.13;2.15;;;;;;;;;;4882119;29;32574;-65
2021/11/14 08:07:48;;;;;;;1.88;1.25;;;;;;;;;;4881211;28;32534;-66
2021/11/14 08:10:17;;;;;;;;;;;;;;;;;;4723802;28;34359;-66
2021/11/14 08:12:44;;;;;;;1.48;1.13;;;;;;;;;;4640552;28;32631;-65
2021/11/14 08:15:11;;;;;;;1.98;1.77;;;;;;;;;;4764257;28;32653;-70
2021/11/14 08:20:54;;;;;;;4.78;1.75;;;;;;;;;;4056868;32;32611;-67
2021/11/14 08:23:21;;;;;;;5.80;2.28;;;;;;;;;;4680405;28;153460;-65
2021/11/14 08:26:11;;;;;;;4.65;1.25;;;;;;;;;;4059541;33;32702;-65
2021/11/14 08:28:38;;;;;;;2.92;0.95;;;;;;;;;;4874909;28;32378;-67
2021/11/14 08:31:05;;;;;;;2.08;1.02;;;;;;;;;;4802931;28;35111;-67
2021/11/14 08:34:45;;;;;;;3.20;1.48;;;;;;;;;;4191657;32;32390;-66
2021/11/14 08:37:12;;;;;;;6.78;2.05;;;;;;;;;;4818541;28;32453;-65
2021/11/14 08:39:39;;;;;;;;;;;;;;;;;;4889743;28;35149;-66
2021/11/14 08:42:07;;;;;;;3.63;1.40;;;;;;;;;;4883835;28;33196;-68
2021/11/14 08:44:34;;;;;;;3.53;1.10;;;;;;;;;;4617972;28;32292;-66
2021/11/14 08:47:00;;;;;;;5.07;1.92;;;;;;;;;;4689019;28;32472;-64
2021/11/14 08:49:27;;;;;;;2.90;1.13;;;;;;;;;;4865972;28;32708;-66
2021/11/14 08:51:55;;;;;;;1.48;1.13;;;;;;;;;;4895194;28;35440;-66
2021/11/14 08:54:23;;;;;;;1.88;1.52;;;;;;;;;;4896055;28;32520;-64
2021/11/14 08:56:50;;;;;;;1.77;1.10;;;;;;;;;;4874079;28;32805;-64
2021/11/14 08:59:17;;;;;;;2.75;1.80;;;;;;;;;;4891742;28;32944;-65
2021/11/14 09:01:44;;;;;;;1.73;1.60;;;;;;;;;;4872674;29;35107;-65
2021/11/14 09:04:11;;;;;;;2.67;1.63;;;;;;;;;;4856729;29;32646;-65
2021/11/14 09:06:38;;;;;;;2.88;2.03;;;;;;;;;;4875219;29;32450;-66
2021/11/14 09:09:10;;;;;;;1.23;1.05;;;;;;;;;;4873821;29;32744;-66
2021/11/14 09:11:37;;;;;;;1.48;0.93;;;;;;;;;;4874695;29;32413;-66
2021/11/14 09:14:04;;;;;;;1.33;1.00;;;;;;;;;;4875100;29;33908;-64
2021/11/14 09:16:30;;;;;;;1.73;1.15;;;;;;;;;;4874402;29;32558;-67
2021/11/14 09:18:58;;;;;;;1.40;1.08;;;;;;;;;;4875545;29;32677;-65
2021/11/14 09:21:25;;;;;;;1.98;1.10;;;;;;;;;;4874096;29;32692;-66
2021/11/14 09:23:52;;;;;;;1.55;0.85;;;;;;;;;;4870873;29;33920;-66
2021/11/14 09:26:20;;;;;;;1.33;0.95;;;;;;;;;;4869823;29;32704;-66
2021/11/14 09:28:47;;;;;;;2.10;1.90;;;;;;;;;;4870755;29;32423;-65
2021/11/14 09:31:14;;;;;;;1.60;1.08;;;;;;;;;;4869676;29;32401;-66
2021/11/14 09:33:42;;;;;;;3.13;2.13;;;;;;;;;;4874978;29;32275;-65
2021/11/14 09:36:09;;;;;;;2.28;2.08;;;;;;;;;;4878285;29;34659;-66
2021/11/14 09:38:37;;;;;;;2.70;1.02;;;;;;;;;;4855827;29;32547;-66
2021/11/14 09:41:05;;;;;;;1.42;1.02;;;;;;;;;;4868465;29;32477;-66
2021/11/14 09:43:34;;;;;;;1.15;1.05;;;;;;;;;;4869479;29;32602;-67
2021/11/14 09:46:02;;;;;;;1.15;1.05;;;;;;;;;;4855780;29;34710;-65
2021/11/14 09:48:29;;;;;;;1.67;0.93;;;;;;;;;;4856250;29;32564;-64
2021/11/14 09:50:57;;;;;;;1.85;1.75;;;;;;;;;;4859324;29;33384;-65
2021/11/14 09:53:28;;;;;;;2.17;1.98;;;;;;;;;;4851849;29;32237;-65
2021/11/14 09:55:56;;;;;;;1.98;1.88;;;;;;;;;;4856651;29;32494;-65
2021/11/14 09:58:23;;;;;;;1.67;1.58;;;;;;;;;;4853820;29;34500;-66
2021/11/14 10:00:52;;;;;;;1.40;1.00;;;;;;;;;;4853466;29;32339;-64
2021/11/14 10:03:20;;;;;;;2.65;2.05;;;;;;;;;;4858285;29;32322;-65
2021/11/14 10:05:50;;;;;;;1.45;0.98;;;;;;;;;;4855793;29;32801;-68
2021/11/14 10:08:19;;;;;;;2.45;1.40;;;;;;;;;;4857408;29;34064;-65
2021/11/14 10:10:49;;;;;;;3.90;1.73;;;;;;;;;;4858792;29;32315;-67
2021/11/14 10:13:20;;;;;;;2.00;1.77;;;;;;;;;;4837413;29;32798;-66
2021/11/14 10:15:49;;;;;;;3.33;2.53;;;;;;;;;;4859013;29;32295;-65
2021/11/14 10:18:20;;;;;;;2.67;1.50;;;;;;;;;;4857133;29;32426;-67
2021/11/14 10:20:50;;;;;;;3.17;2.20;;;;;;;;;;4654714;29;33907;-67
2021/11/14 10:23:18;;;;;;;3.25;2.38;;;;;;;;;;4736122;29;32889;-70
2021/11/14 10:25:49;;;;;;;2.92;2.60;;;;;;;;;;4722071;29;43178;-70
2021/11/14 10:28:16;;;;;;;4.78;1.65;;;;;;;;;;4676681;29;32526;-72
2021/11/14 10:30:46;;;;;;;2.30;1.33;;;;;;;;;;4270380;29;34196;-66
2021/11/14 10:33:16;;;;;;;2.75;2.40;;;;;;;;;;4875113;29;32617;-70
2021/11/14 10:35:47;;;;;;;1.88;1.23;;;;;;;;;;4885793;29;32406;-69
2021/11/14 10:38:16;;;;;;;2.60;1.58;;;;;;;;;;4878233;29;32438;-68
2021/11/14 10:40:46;;;;;;;2.65;2.08;;;;;;;;;;4791040;29;32442;-70
2021/11/14 10:43:13;;;;;;;2.40;1.50;;;;;;;;;;4876442;29;34542;-69
2021/11/14 10:45:41;;;;;;;3.50;1.55;;;;;;;;;;4812742;29;32450;-66
2021/11/14 10:48:11;;;;;;;3.95;1.52;;;;;;;;;;4859103;29;32541;-69
2021/11/14 10:50:41;;;;;;;2.15;1.58;;;;;;;;;;4885479;29;32613;-69
2021/11/14 10:53:12;;;;;;;2.60;2.38;;;;;;;;;;4886149;29;34063;-70
2021/11/14 10:55:41;;;;;;;2.92;1.58;;;;;;;;;;4885385;29;32306;-70
2021/11/14 10:58:08;;;;;;;3.88;1.85;;;;;;;;;;4885035;29;32412;-70
2021/11/14 11:00:36;;;;;;;2.60;2.25;;;;;;;;;;4880129;29;32497;-68
2021/11/14 11:03:03;;;;;;;1.63;1.25;;;;;;;;;;4853734;29;32459;-69
2021/11/14 11:05:31;;;;;;;;;;;;;;;;;;4877589;29;33995;-68
2021/11/14 11:07:59;;;;;;;2.85;2.10;;;;;;;;;;4872126;29;32442;-68
2021/11/14 11:10:32;;;;;;;2.22;1.58;;;;;;;;;;4874601;29;32636;-70
2021/11/14 11:12:59;;;;;;;3.17;2.28;;;;;;;;;;4873323;29;32315;-71
2021/11/14 11:15:25;;;;;;;3.60;2.15;;;;;;;;;;4877095;29;34273;-70
2021/11/14 11:17:54;;;;;;;2.60;2.33;;;;;;;;;;4879060;29;32518;-70
2021/11/14 11:20:29;;;;;;;1.67;1.17;;;;;;;;;;4866735;29;32530;-70
2021/11/14 11:23:03;;;;;;;2.67;2.10;;;;;;;;;;4875844;29;32370;-71
2021/11/14 11:25:37;;;;;;;2.08;1.52;;;;;;;;;;4876690;29;32579;-70
2021/11/14 11:28:06;;;;;;;2.60;1.67;;;;;;;;;;4873781;29;35707;-70
2021/11/14 11:30:39;;;;;;;2.63;2.42;;;;;;;;;;4875981;29;32407;-69
2021/11/14 11:33:05;;;;;;;3.30;2.33;;;;;;;;;;4870427;29;32345;-68
2021/11/14 11:35:33;;;;;;;2.58;2.17;;;;;;;;;;4876833;29;32526;-71
2021/11/14 11:37:59;;;;;;;;;;;;;;;;;;4876223;29;34660;-72
2021/11/14 11:40:26;;;;;;;1.92;1.80;;;;;;;;;;4876505;29;32936;-74
2021/11/14 11:42:54;;;;;;;2.78;2.20;;;;;;;;;;4874102;29;32361;-70
2021/11/14 11:45:34;;;;;;;4.13;2.75;;;;;;;;;;4880445;29;32778;-73
2021/11/14 11:48:05;;;;;;;4.20;2.35;;;;;;;;;;4878152;29;33093;-71
2021/11/14 11:50:34;;;;;;;3.22;2.83;;;;;;;;;;4871921;29;34730;-74
2021/11/14 11:53:02;;;;;;;2.50;1.50;;;;;;;;;;4866589;29;32921;-73
2021/11/14 11:55:36;;;;;;;3.28;1.58;;;;;;;;;;4864991;29;32494;-67
2021/11/14 11:58:13;;;;;;;3.58;2.60;;;;;;;;;;4881354;29;32401;-67
2021/11/14 12:00:55;;;;;;;2.75;1.50;;;;;;;;;;4885417;29;34293;-65
2021/11/14 12:03:29;;;;;;;2.60;2.40;;;;;;;;;;4883166;29;32418;-68
2021/11/14 12:05:57;;;;;;;2.72;1.83;;;;;;;;;;4885568;29;32428;-71
2021/11/14 12:08:36;;;;;;;2.60;1.95;;;;;;;;;;4884830;29;32351;-71
2021/11/14 12:11:03;;;;;;;3.70;2.28;;;;;;;;;;4876046;29;32397;-69
2021/11/14 12:13:31;;;;;;;6.97;2.78;;;;;;;;;;4865634;29;35012;-70
2021/11/14 12:16:00;;;;;;;2.45;2.03;;;;;;;;;;4866245;29;32303;-70
2021/11/14 12:18:40;;;;;;;2.47;1.45;;;;;;;;;;4865408;29;32368;-71
2021/11/14 12:21:18;;;;;;;4.22;2.65;;;;;;;;;;4865813;29;32512;-69
2021/11/14 12:23:58;;;;;;;6.20;1.80;;;;;;;;;;4866248;29;34671;-70
2021/11/14 12:26:31;;;;;;;5.70;1.88;;;;;;;;;;4866641;29;32599;-70
2021/11/14 12:29:05;;;;;;;4.55;1.67;;;;;;;;;;4849142;29;32412;-70
2021/11/14 12:31:44;;;;;;;3.88;1.88;;;;;;;;;;4865267;29;32480;-70
2021/11/14 12:34:22;;;;;;;7.35;3.00;;;;;;;;;;4866142;29;32325;-69
2021/11/14 12:36:49;;;;;;;5.05;2.58;;;;;;;;;;4866352;29;34376;-69
2021/11/14 12:39:23;;;;;;;3.53;2.10;;;;;;;;;;4865777;29;32553;-71
2021/11/14 12:41:54;;;;;;;5.70;3.63;;;;;;;;;;4866636;29;32170;-70
2021/11/14 12:44:34;;;;;;;3.60;2.00;;;;;;;;;;4866561;29;32337;-70
2021/11/14 12:47:15;;;;;;;8.18;2.10;;;;;;;;;;4866064;29;35699;-72
2021/11/14 12:49:43;;;;;;;5.28;3.33;;;;;;;;;;4866098;29;32391;-71
2021/11/14 12:52:10;;;;;;;3.72;2.50;;;;;;;;;;4866779;29;32168;-70
2021/11/14 12:54:50;;;;;;;4.00;2.85;;;;;;;;;;4864329;29;32492;-69
2021/11/14 12:57:18;;;;;;;4.35;2.38;;;;;;;;;;4866624;29;32383;-70
2021/11/14 12:59:49;;;;;;;4.40;3.55;;;;;;;;;;4866684;29;32342;-71
2021/11/14 13:02:19;;;;;;;4.70;2.58;;;;;;;;;;4865796;29;32347;-70
2021/11/14 13:04:45;;;;;;;5.18;2.70;;;;;;;;;;4866549;29;32223;-71
2021/11/14 13:07:22;;;;;;;5.00;3.30;;;;;;;;;;4866455;29;32478;-70
2021/11/14 13:09:50;;;;;;;8.18;3.40;;;;;;;;;;4860241;29;34700;-70
2021/11/14 13:12:19;;;;;;;5.30;2.83;;;;;;;;;;4866341;29;32433;-70
2021/11/14 13:14:50;;;;;;;5.68;2.47;;;;;;;;;;4862241;29;32821;-71
2021/11/14 13:17:17;;;;;;;6.10;3.08;;;;;;;;;;4865798;29;32522;-69
2021/11/14 13:19:46;;;;;;;5.45;4.00;;;;;;;;;;4866653;29;32431;-71
2021/11/14 13:22:15;;;;;;;5.97;3.72;;;;;;;;;;4865618;29;32490;-69
2021/11/14 13:24:47;;;;;;;5.55;2.83;;;;;;;;;;4868720;29;32450;-70
2021/11/14 13:27:17;;;;;;;6.05;3.95;;;;;;;;;;4868718;29;32348;-70
2021/11/14 13:29:48;;;;;;;7.05;4.10;;;;;;;;;;4868692;29;32485;-68
2021/11/14 13:32:19;;;;;;;4.50;2.88;;;;;;;;;;4868624;29;34231;-69
2021/11/14 13:34:48;;;;;;;5.35;2.92;;;;;;;;;;4868270;29;32393;-72
2021/11/14 13:37:16;;;;;;;6.35;2.88;;;;;;;;;;4868453;29;32326;-70
2021/11/14 13:39:46;;;;;;;6.47;3.75;;;;;;;;;;4868722;29;32486;-69
2021/11/14 13:42:15;;;;;;;4.80;3.25;;;;;;;;;;4868766;29;32195;-69
2021/11/14 13:44:44;;;;;;;7.85;3.67;;;;;;;;;;4868134;29;32398;-71
2021/11/14 13:47:16;;;;;;;6.70;3.83;;;;;;;;;;4869054;29;32254;-69
2021/11/14 13:49:46;;;;;;;6.38;3.60;;;;;;;;;;4868832;29;32453;-71
2021/11/14 13:52:15;;;;;;;5.57;2.10;;;;;;;;;;4868245;29;32389;-73
2021/11/14 13:54:47;;;;;;;6.47;4.38;;;;;;;;;;4867867;29;34624;-71
2021/11/14 13:57:16;;;;;;;4.82;4.05;;;;;;;;;;4868250;29;32393;-71
2021/11/14 13:59:43;;;;;;;7.05;3.55;;;;;;;;;;4868201;29;32352;-71
2021/11/14 14:02:13;;;;;;;5.93;3.28;;;;;;;;;;4867991;29;32451;-70
2021/11/14 14:04:52;;;;;;;4.47;2.42;;;;;;;;;;4867194;29;32521;-70
2021/11/14 14:07:18;;;;;;;5.43;2.95;;;;;;;;;;4872062;29;32525;-69
2021/11/14 14:09:57;;;;;;;7.22;2.70;;;;;;;;;;4867020;29;32388;-71
2021/11/14 14:12:26;;;;;;;6.40;3.00;;;;;;;;;;4867130;29;32375;-70
2021/11/14 14:14:55;;;;;;;5.72;4.20;;;;;;;;;;4868270;29;32570;-68
2021/11/14 14:17:26;;;;;;;8.23;4.00;;;;;;;;;;4884809;29;34170;-70
2021/11/14 14:19:54;;;;;;;4.90;2.47;;;;;;;;;;4876766;29;32715;-69
2021/11/14 14:22:21;;;;;;;8.10;3.53;;;;;;;;;;4869527;29;32993;-69
2021/11/14 14:24:51;;;;;;;4.65;3.05;;;;;;;;;;4868111;29;33011;-70
2021/11/14 14:27:20;;;;;;;5.78;3.83;;;;;;;;;;4867861;29;32526;-71
2021/11/14 14:30:03;;;;;;;6.15;3.15;;;;;;;;;;4866511;29;32518;-68
2021/11/14 14:32:31;;;;;;;7.07;4.25;;;;;;;;;;4866555;29;32276;-70
2021/11/14 14:35:10;;;;;;;8.50;3.90;;;;;;;;;;4874232;29;32688;-69
2021/11/14 14:37:46;;;;;;;6.43;3.25;;;;;;;;;;4879172;29;32764;-70
2021/11/14 14:40:16;;;;;;;8.88;4.45;;;;;;;;;;4870626;29;35538;-70
2021/11/14 14:42:54;;;;;;;6.45;3.30;;;;;;;;;;4887258;29;32767;-72
2021/11/14 14:45:24;;;;;;;6.80;2.55;;;;;;;;;;4886189;29;32367;-71
2021/11/14 14:48:00;;;;;;;9.77;3.70;;;;;;;;;;4886305;29;32391;-72
2021/11/14 14:50:28;;;;;;;7.50;2.55;;;;;;;;;;4875449;29;32256;-70
2021/11/14 14:52:56;;;;;;;6.32;3.53;;;;;;;;;;4845292;29;32580;-70
2021/11/14 14:55:23;;;;;;;8.15;2.47;;;;;;;;;;4826844;29;40926;-72
2021/11/14 14:57:51;;;;;;;3.92;2.20;;;;;;;;;;4840722;29;33085;-71
2021/11/14 15:00:30;;;;;;;7.32;2.63;;;;;;;;;;4845882;29;32653;-76
2021/11/14 15:03:00;;;;;;;6.97;2.20;;;;;;;;;;4842956;29;34233;-74
2021/11/14 15:05:27;;;;;;;5.35;2.45;;;;;;;;;;4840313;29;32561;-75